Time;durP1;ratioP1;P1;durP2;ratioP2;P2;SDS_P1;SDS_P2;PMS_P1;PMS_P2;Temp;Humidity;BMP_temperature;BMP_pressure;BME280_temperature;BME280_humidity;BME280_pressure;Samples;Min_cycle;Max_cycle;Signal;HPM_P1;HPM_P2
2020/12/25 00:02:07;;;;;;;9.57;3.42;;;;;;;1.67;74.30;103119.97;5017538;28;20044;-81
2020/12/25 00:04:35;;;;;;;8.65;3.38;;;;;;;1.69;74.15;103115.16;5032933;28;20120;-80
2020/12/25 00:07:02;;;;;;;7.75;4.25;;;;;;;1.73;74.03;103105.41;5015963;28;20132;-80
2020/12/25 00:09:29;;;;;;;9.80;4.07;;;;;;;1.77;74.05;103106.63;5013783;28;20474;-80
2020/12/25 00:11:55;;;;;;;7.93;3.80;;;;;;;1.79;73.81;103112.72;5030993;28;20128;-79
2020/12/25 00:14:21;;;;;;;10.98;4.00;;;;;;;1.81;73.86;103112.47;5037739;28;20123;-79
2020/12/25 00:16:47;;;;;;;15.38;4.55;;;;;;;1.80;74.14;103106.16;5050791;28;20473;-79
2020/12/25 00:19:14;;;;;;;11.55;3.08;;;;;;;1.80;74.18;103108.09;5033462;28;20501;-81
2020/12/25 00:21:40;;;;;;;11.85;5.18;;;;;;;1.80;74.02;103108.09;5050533;28;20084;-80
2020/12/25 00:24:07;;;;;;;11.75;3.97;;;;;;;1.78;73.91;103111.03;5050572;28;20072;-79
2020/12/25 00:26:33;;;;;;;10.23;5.07;;;;;;;1.77;73.75;103103.88;5032152;28;20552;-79
2020/12/25 00:29:02;;;;;;;9.13;2.92;;;;;;;1.74;74.17;103104.38;5015590;28;20152;-81
2020/12/25 00:31:29;;;;;;;11.98;4.38;;;;;;;1.73;73.99;103090.94;5051608;28;20065;-80
2020/12/25 00:34:00;;;;;;;5.68;3.50;;;;;;;1.72;73.80;103094.75;5015178;28;20072;-78
2020/12/25 00:36:29;;;;;;;7.72;3.03;;;;;;;1.67;73.90;103089.09;5028844;28;20494;-79
2020/12/25 00:38:57;;;;;;;6.63;2.97;;;;;;;1.66;74.19;103088.28;5015405;28;20044;-78
2020/12/25 00:41:25;;;;;;;8.15;3.80;;;;;;;1.62;74.10;103081.59;5032333;28;20131;-81
2020/12/25 00:43:52;;;;;;;7.88;3.03;;;;;;;1.59;74.18;103083.97;5034793;28;20064;-79
2020/12/25 00:46:19;;;;;;;7.03;3.33;;;;;;;1.55;74.04;103071.84;5034074;28;20049;-79
2020/12/25 00:48:45;;;;;;;9.35;4.28;;;;;;;1.52;74.37;103078.59;5037778;28;20139;-79
2020/12/25 00:51:20;;;;;;;5.60;3.20;;;;;;;1.50;74.19;103075.25;5038012;28;20041;-78
2020/12/25 00:53:47;;;;;;;12.57;3.53;;;;;;;1.49;74.32;103070.00;5056018;28;20041;-79
2020/12/25 00:56:14;;;;;;;8.02;3.20;;;;;;;1.47;74.59;103067.53;5021954;28;20441;-78
2020/12/25 00:58:41;;;;;;;8.43;2.97;;;;;;;1.47;74.35;103053.03;5056236;28;20045;-78
2020/12/25 01:01:09;;;;;;;7.43;3.25;;;;;;;1.45;74.68;103056.00;5055972;28;20402;-78
2020/12/25 01:03:37;;;;;;;8.60;2.80;;;;;;;1.43;74.57;103049.91;5038354;28;20055;-78
2020/12/25 01:06:10;;;;;;;8.20;3.30;;;;;;;1.40;74.53;103046.81;5037806;28;20048;-78
2020/12/25 01:08:36;;;;;;;7.97;3.05;;;;;;;1.40;75.18;103057.75;5055641;28;20135;-78
2020/12/25 01:11:04;;;;;;;7.55;3.05;;;;;;;1.40;75.03;103052.28;5056176;28;20132;-78
2020/12/25 01:13:32;;;;;;;6.75;2.55;;;;;;;1.40;75.18;103058.59;5055980;28;20124;-78
2020/12/25 01:16:08;;;;;;;12.82;4.43;;;;;;;1.41;75.22;103048.47;5037866;28;20516;-77
2020/12/25 01:18:36;;;;;;;5.95;3.30;;;;;;;1.42;75.61;103056.47;5056160;28;20464;-78
2020/12/25 01:21:03;;;;;;;11.63;3.42;;;;;;;1.47;75.27;103064.78;5055784;28;20043;-78
2020/12/25 01:23:29;;;;;;;8.88;3.28;;;;;;;1.50;75.43;103064.34;5055895;28;20037;-78
2020/12/25 01:25:56;;;;;;;11.00;3.10;;;;;;;1.53;75.52;103060.31;5037926;28;20081;-78
2020/12/25 01:28:22;;;;;;;6.20;2.92;;;;;;;1.53;75.39;103069.34;5038036;28;20060;-78
2020/12/25 01:30:48;;;;;;;6.35;3.50;;;;;;;1.55;75.75;103061.75;5038375;28;20397;-78
2020/12/25 01:33:14;;;;;;;4.45;2.45;;;;;;;1.57;75.65;103062.34;5055095;28;20064;-78
2020/12/25 01:35:41;;;;;;;11.70;3.55;;;;;;;1.59;75.61;103060.22;5055579;28;20079;-78
2020/12/25 01:38:07;;;;;;;10.95;3.40;;;;;;;1.61;75.69;103058.13;5055447;28;20060;-78
2020/12/25 01:40:33;;;;;;;12.90;3.08;;;;;;;1.60;75.49;103053.72;5034633;28;20060;-78
2020/12/25 01:43:00;;;;;;;11.10;2.78;;;;;;;1.57;75.80;103051.44;5051824;28;20094;-78
2020/12/25 01:45:26;;;;;;;5.95;2.47;;;;;;;1.56;75.89;103052.47;5055423;28;20124;-78
2020/12/25 01:47:55;;;;;;;6.88;2.47;;;;;;;1.54;75.88;103054.63;5055214;28;20084;-78
2020/12/25 01:50:26;;;;;;;7.78;2.75;;;;;;;1.52;76.04;103037.63;5037146;28;20127;-78
2020/12/25 01:52:55;;;;;;;8.35;3.30;;;;;;;1.50;76.19;103045.22;5038348;28;20509;-78
2020/12/25 01:55:25;;;;;;;8.07;3.00;;;;;;;1.44;76.22;103043.41;5055131;28;20127;-78
2020/12/25 01:57:54;;;;;;;11.02;3.00;;;;;;;1.42;76.33;103045.53;5037268;28;20432;-78
2020/12/25 02:00:23;;;;;;;8.43;3.70;;;;;;;1.40;76.46;103039.47;5036818;28;20544;-78
2020/12/25 02:02:49;;;;;;;8.35;3.42;;;;;;;1.36;76.13;103035.53;5055179;28;20111;-78
2020/12/25 02:05:16;;;;;;;9.38;3.53;;;;;;;1.34;76.47;103026.75;5054870;28;20120;-78
2020/12/25 02:07:43;;;;;;;12.05;4.70;;;;;;;1.30;76.20;103036.44;5054243;28;20083;-78
2020/12/25 02:10:10;;;;;;;5.88;4.05;;;;;;;1.29;76.18;103029.31;5037083;28;20125;-78
2020/12/25 02:12:37;;;;;;;5.35;3.30;;;;;;;1.24;76.34;103031.91;5054695;28;20124;-78
2020/12/25 02:15:07;;;;;;;7.03;3.13;;;;;;;1.21;76.30;103032.34;5036286;28;20125;-78
2020/12/25 02:17:34;;;;;;;10.88;3.55;;;;;;;1.20;76.31;103030.69;5020510;28;20436;-78
2020/12/25 02:20:02;;;;;;;8.75;3.85;;;;;;;1.17;76.71;103020.22;5054691;28;20051;-78
2020/12/25 02:22:29;;;;;;;12.35;3.35;;;;;;;1.15;76.41;103027.78;5035093;28;20398;-78
2020/12/25 02:24:56;;;;;;;15.40;5.85;;;;;;;1.13;76.73;103030.75;5051547;28;20575;-78
2020/12/25 02:27:22;;;;;;;12.93;6.25;;;;;;;1.15;76.90;103033.25;5036801;28;20072;-78
2020/12/25 02:29:48;;;;;;;14.15;7.57;;;;;;;1.17;76.74;103031.13;5054905;28;20410;-78
2020/12/25 02:32:14;;;;;;;11.63;5.13;;;;;;;1.16;76.63;103030.31;5054617;28;20076;-78
2020/12/25 02:34:41;;;;;;;13.15;5.65;;;;;;;1.16;76.79;103029.47;5054453;28;20043;-78
2020/12/25 02:37:07;;;;;;;9.27;4.22;;;;;;;1.14;76.78;103029.69;5053816;28;20040;-78
2020/12/25 02:39:33;;;;;;;12.63;5.43;;;;;;;1.15;76.81;103038.72;5053827;28;20037;-78
2020/12/25 02:41:59;;;;;;;11.27;4.68;;;;;;;1.17;77.20;103028.41;5036603;28;20493;-78
2020/12/25 02:44:26;;;;;;;14.35;4.50;;;;;;;1.18;77.05;103043.72;5054075;28;20069;-78
2020/12/25 02:46:52;;;;;;;10.23;5.30;;;;;;;1.19;77.17;103034.47;5031816;28;20064;-78
2020/12/25 02:49:18;;;;;;;8.80;5.00;;;;;;;1.20;77.01;103036.13;5023952;28;20076;-78
2020/12/25 02:51:48;;;;;;;14.02;5.10;;;;;;;1.20;77.12;103036.97;5047593;28;20039;-78
2020/12/25 02:54:14;;;;;;;17.58;8.98;;;;;;;1.19;77.00;103039.94;5036340;28;20445;-78
2020/12/25 02:56:40;;;;;;;19.60;9.57;;;;;;;1.21;77.29;103032.34;5036363;28;20037;-78
2020/12/25 02:59:07;;;;;;;15.13;7.78;;;;;;;1.22;77.29;103039.47;5066137;28;20048;-78
2020/12/25 03:01:36;;;;;;;20.05;8.43;;;;;;;1.23;77.03;103036.53;5054005;28;20115;-78
2020/12/25 03:04:03;;;;;;;11.43;5.25;;;;;;;1.20;77.05;103036.97;5035906;28;20095;-78
2020/12/25 03:06:29;;;;;;;7.78;4.68;;;;;;;1.22;77.19;103028.53;5053325;28;20037;-78
2020/12/25 03:08:55;;;;;;;8.55;5.22;;;;;;;1.22;77.21;103028.53;5036238;28;20144;-78
2020/12/25 03:11:21;;;;;;;10.57;4.47;;;;;;;1.22;77.33;103034.00;5052496;28;20073;-79
2020/12/25 03:13:48;;;;;;;14.88;5.65;;;;;;;1.22;77.59;103023.09;5053364;28;20124;-78
2020/12/25 03:16:14;;;;;;;8.35;3.97;;;;;;;1.23;77.37;103035.69;5071661;28;20452;-78
2020/12/25 03:18:40;;;;;;;8.40;4.18;;;;;;;1.23;77.45;103030.22;5055779;28;20536;-78
2020/12/25 03:21:07;;;;;;;6.32;3.78;;;;;;;1.25;77.78;103033.56;5064524;28;20052;-78
2020/12/25 03:23:33;;;;;;;9.45;4.18;;;;;;;1.25;77.42;103028.09;5053132;28;20071;-79
2020/12/25 03:25:59;;;;;;;10.50;5.25;;;;;;;1.25;77.45;103019.91;5053760;28;20061;-79
2020/12/25 03:28:26;;;;;;;9.60;4.30;;;;;;;1.23;77.42;103022.88;5019475;28;20041;-78
2020/12/25 03:30:52;;;;;;;6.70;3.92;;;;;;;1.21;77.49;103024.16;5053382;28;20129;-78
2020/12/25 03:33:18;;;;;;;10.43;4.00;;;;;;;1.17;77.80;103020.22;5035153;28;20124;-78
2020/12/25 03:35:50;;;;;;;13.70;3.90;;;;;;;1.17;77.36;103017.47;5053125;28;20548;-78
2020/12/25 03:38:17;;;;;;;7.07;4.63;;;;;;;1.17;77.47;103014.75;5035505;28;20049;-78
2020/12/25 03:40:43;;;;;;;9.90;3.55;;;;;;;1.15;77.85;103011.44;5035278;28;20115;-78
2020/12/25 03:43:09;;;;;;;7.82;3.30;;;;;;;1.14;78.01;103004.28;5053210;28;20481;-78
2020/12/25 03:45:36;;;;;;;10.07;4.07;;;;;;;1.17;77.58;103004.69;5052911;28;20037;-78
2020/12/25 03:48:02;;;;;;;9.75;4.43;;;;;;;1.19;77.69;103013.47;5035530;28;20037;-78
2020/12/25 03:50:29;;;;;;;8.77;3.55;;;;;;;1.21;77.95;103015.97;5035338;28;20099;-78
2020/12/25 03:52:55;;;;;;;8.27;3.15;;;;;;;1.21;77.78;103005.06;5052858;28;20099;-78
2020/12/25 03:55:22;;;;;;;9.73;3.33;;;;;;;1.20;77.88;103008.84;5035563;28;20497;-79
2020/12/25 03:57:48;;;;;;;9.55;3.80;;;;;;;1.20;78.17;103011.56;5035468;28;20068;-78
2020/12/25 04:00:14;;;;;;;6.85;3.67;;;;;;;1.22;77.87;103012.19;5035346;28;20505;-78
2020/12/25 04:02:41;;;;;;;6.53;4.30;;;;;;;1.23;78.20;103011.13;5052521;28;20430;-78
2020/12/25 04:05:07;;;;;;;6.85;3.70;;;;;;;1.23;77.96;103006.50;5053239;28;20091;-78
2020/12/25 04:07:33;;;;;;;12.50;3.97;;;;;;;1.28;78.05;103005.81;5073062;28;20448;-78
2020/12/25 04:10:00;;;;;;;5.72;3.67;;;;;;;1.31;77.81;103012.72;5072984;28;20094;-78
2020/12/25 04:12:26;;;;;;;8.07;3.58;;;;;;;1.31;78.20;103005.38;5042212;28;20485;-78
2020/12/25 04:14:52;;;;;;;10.73;4.32;;;;;;;1.32;78.13;103006.19;5052919;28;20132;-78
2020/12/25 04:17:18;;;;;;;11.90;3.55;;;;;;;1.32;78.20;103004.31;5052878;28;20080;-79
2020/12/25 04:19:45;;;;;;;5.93;3.33;;;;;;;1.35;78.01;102995.63;5034835;28;20064;-78
2020/12/25 04:22:11;;;;;;;13.68;3.90;;;;;;;1.36;77.85;102999.22;5054167;28;20047;-78
2020/12/25 04:24:37;;;;;;;7.53;3.35;;;;;;;1.38;78.44;102999.84;5039592;28;20083;-78
2020/12/25 04:27:03;;;;;;;5.90;3.83;;;;;;;1.40;77.92;102993.09;5056501;28;20449;-78
2020/12/25 04:29:30;;;;;;;6.63;3.33;;;;;;;1.41;77.97;102994.72;5039158;28;20048;-78
2020/12/25 04:31:56;;;;;;;8.55;3.63;;;;;;;1.44;78.25;103004.34;5056709;28;20132;-78
2020/12/25 04:34:22;;;;;;;6.32;3.15;;;;;;;1.42;78.25;103001.88;5039446;28;20083;-79
2020/12/25 04:36:49;;;;;;;7.20;3.67;;;;;;;1.43;78.21;103008.16;5056214;28;20099;-78
2020/12/25 04:39:17;;;;;;;10.95;3.20;;;;;;;1.43;77.99;102997.25;5023082;28;20378;-78
2020/12/25 04:41:44;;;;;;;5.40;2.92;;;;;;;1.42;78.09;103006.50;5065886;28;20033;-78
2020/12/25 04:44:11;;;;;;;7.22;3.22;;;;;;;1.43;78.21;103008.97;5056365;28;20041;-78
2020/12/25 04:46:37;;;;;;;6.82;3.22;;;;;;;1.44;78.13;103016.13;5038349;28;20143;-78
2020/12/25 04:49:07;;;;;;;9.95;3.95;;;;;;;1.44;78.34;103015.28;5056375;28;20592;-78
2020/12/25 04:51:35;;;;;;;10.60;4.05;;;;;;;1.47;78.32;103009.34;5055921;28;20048;-78
2020/12/25 04:54:01;;;;;;;5.40;3.35;;;;;;;1.47;77.98;103009.34;5056426;28;20167;-78
2020/12/25 04:56:28;;;;;;;7.65;3.15;;;;;;;1.46;78.11;103010.41;5056893;28;20040;-78
2020/12/25 04:58:54;;;;;;;8.23;3.97;;;;;;;1.47;78.17;103004.75;5056071;28;20073;-79
2020/12/25 05:01:21;;;;;;;7.57;4.28;;;;;;;1.50;78.09;103014.38;5038372;28;20064;-78
2020/12/25 05:03:47;;;;;;;9.82;4.50;;;;;;;1.48;78.20;103013.78;5038811;28;20037;-79
2020/12/25 05:06:16;;;;;;;4.85;3.65;;;;;;;1.46;78.49;103008.53;5056183;28;20041;-78
2020/12/25 05:08:46;;;;;;;11.60;3.78;;;;;;;1.45;78.12;103012.34;5056166;28;20456;-78
2020/12/25 05:11:16;;;;;;;6.70;3.85;;;;;;;1.44;78.34;102997.00;5055472;28;20036;-78
2020/12/25 05:13:53;;;;;;;10.55;5.18;;;;;;;1.42;78.42;103006.50;5056540;28;20064;-79
2020/12/25 05:16:22;;;;;;;8.80;4.80;;;;;;;1.39;78.54;102999.59;5038079;28;20064;-78
2020/12/25 05:18:50;;;;;;;16.38;4.93;;;;;;;1.39;78.44;103006.94;5055941;28;20061;-78
2020/12/25 05:21:19;;;;;;;10.77;4.30;;;;;;;1.37;78.24;103009.91;5055068;28;20045;-78
2020/12/25 05:23:47;;;;;;;7.90;4.50;;;;;;;1.36;78.51;103013.69;5037840;28;20049;-78
2020/12/25 05:26:15;;;;;;;10.32;5.05;;;;;;;1.36;78.64;103007.41;5043034;28;20092;-78
2020/12/25 05:28:43;;;;;;;6.30;3.58;;;;;;;1.34;78.44;103010.38;5055326;28;20449;-78
2020/12/25 05:31:11;;;;;;;7.05;4.30;;;;;;;1.32;78.68;103004.31;5063270;28;20080;-78
2020/12/25 05:33:38;;;;;;;8.23;4.45;;;;;;;1.33;78.37;103002.38;5054367;28;20041;-79
2020/12/25 05:36:13;;;;;;;10.63;4.93;;;;;;;1.31;78.74;102999.91;5020753;28;20091;-79
2020/12/25 05:38:46;;;;;;;7.20;4.10;;;;;;;1.28;78.77;103002.25;5055371;28;20536;-79
2020/12/25 05:41:14;;;;;;;12.23;4.10;;;;;;;1.28;78.32;103004.97;5019683;28;20124;-78
2020/12/25 05:43:50;;;;;;;7.88;3.83;;;;;;;1.24;78.50;103010.06;5017752;28;20525;-78
2020/12/25 05:46:17;;;;;;;9.15;4.22;;;;;;;1.24;78.41;103005.44;5019556;28;20040;-78
2020/12/25 05:48:52;;;;;;;10.40;5.05;;;;;;;1.21;78.44;103013.25;5049232;28;20120;-78
2020/12/25 05:51:21;;;;;;;9.52;4.03;;;;;;;1.20;78.44;102998.78;5028107;28;20140;-78
2020/12/25 05:53:51;;;;;;;6.00;3.17;;;;;;;1.18;78.63;103000.06;5036956;28;20041;-78
2020/12/25 05:56:18;;;;;;;11.65;4.70;;;;;;;1.19;78.73;102991.63;5055192;28;20441;-79
2020/12/25 05:58:45;;;;;;;8.63;4.25;;;;;;;1.18;78.98;102989.16;5055258;28;20045;-79
2020/12/25 06:01:11;;;;;;;9.52;4.03;;;;;;;1.18;78.80;102983.69;5054972;28;20037;-78
2020/12/25 06:03:38;;;;;;;7.00;3.75;;;;;;;1.18;78.86;102984.53;5055260;28;20041;-79
2020/12/25 06:06:11;;;;;;;9.75;3.97;;;;;;;1.20;79.11;102981.56;5062881;28;20489;-78
2020/12/25 06:08:56;;;;;;;12.30;4.25;;;;;;;1.21;79.00;102977.78;5037044;28;20068;-78
2020/12/25 06:11:29;;;;;;;10.07;4.68;;;;;;;1.21;79.15;102984.09;5054797;28;20037;-78
2020/12/25 06:13:57;;;;;;;7.97;4.30;;;;;;;1.23;79.47;102989.31;5037089;28;20087;-78
2020/12/25 06:16:24;;;;;;;8.57;4.10;;;;;;;1.25;79.16;102984.44;5037319;28;20125;-78
2020/12/25 06:19:02;;;;;;;13.23;4.30;;;;;;;1.24;79.10;102982.78;5020356;28;20136;-78
2020/12/25 06:21:40;;;;;;;9.50;3.88;;;;;;;1.24;79.20;102982.78;5036537;28;20052;-78
2020/12/25 06:24:13;;;;;;;9.02;4.13;;;;;;;1.22;79.31;102984.88;5054434;28;20508;-78
2020/12/25 06:26:40;;;;;;;10.20;5.53;;;;;;;1.22;79.54;102972.09;5054460;28;20044;-78
2020/12/25 06:29:06;;;;;;;15.30;4.50;;;;;;;1.23;79.53;102973.75;5054751;28;20045;-78
2020/12/25 06:31:48;;;;;;;9.95;4.57;;;;;;;1.23;79.81;102972.94;5054465;28;20136;-78
2020/12/25 06:34:14;;;;;;;9.63;3.60;;;;;;;1.24;79.36;102975.41;5036909;28;20072;-78
2020/12/25 06:36:49;;;;;;;10.00;4.60;;;;;;;1.26;79.62;102977.94;5036443;28;20044;-78
2020/12/25 06:39:17;;;;;;;7.80;3.47;;;;;;;1.26;79.79;102980.66;5056958;28;20040;-78
2020/12/25 06:41:44;;;;;;;10.43;4.00;;;;;;;1.28;79.50;102974.97;5056398;28;20048;-78
2020/12/25 06:44:15;;;;;;;11.50;3.88;;;;;;;1.27;80.07;102974.16;5056676;28;20045;-79
2020/12/25 06:46:50;;;;;;;8.37;3.70;;;;;;;1.27;80.21;102974.16;5073870;28;20108;-79
2020/12/25 06:49:19;;;;;;;8.07;3.40;;;;;;;1.25;80.06;102978.97;5074044;28;20138;-78
2020/12/25 06:51:47;;;;;;;10.68;5.03;;;;;;;1.26;80.03;102980.66;5056203;28;20098;-78
2020/12/25 06:54:17;;;;;;;12.02;3.80;;;;;;;1.28;80.01;102984.00;5056189;28;20158;-78
2020/12/25 06:56:45;;;;;;;7.50;3.70;;;;;;;1.29;79.80;102980.22;5041765;28;20041;-78
2020/12/25 06:59:17;;;;;;;8.55;3.65;;;;;;;1.28;80.33;102973.06;5054071;28;20099;-78
2020/12/25 07:01:48;;;;;;;11.88;6.03;;;;;;;1.25;80.47;102973.53;5053875;28;20083;-78
2020/12/25 07:04:25;;;;;;;9.13;4.70;;;;;;;1.25;80.71;102973.53;5035518;28;20049;-78
2020/12/25 07:06:54;;;;;;;9.75;4.40;;;;;;;1.26;80.63;102971.63;5036139;28;20067;-80
2020/12/25 07:09:21;;;;;;;7.13;3.92;;;;;;;1.27;80.51;102971.44;5053522;28;20052;-78
2020/12/25 07:11:52;;;;;;;8.70;5.57;;;;;;;1.28;80.57;102977.69;5035596;28;20713;-78
2020/12/25 07:14:19;;;;;;;7.93;4.80;;;;;;;1.29;80.46;102972.03;5053194;28;20516;-78
2020/12/25 07:16:45;;;;;;;9.32;4.28;;;;;;;1.32;80.49;102962.53;5073766;28;20366;-78
2020/12/25 07:19:12;;;;;;;11.52;5.40;;;;;;;1.32;80.73;102963.38;5073926;28;20381;-78
2020/12/25 07:21:39;;;;;;;13.88;5.65;;;;;;;1.34;80.67;102963.13;5055828;28;20032;-77
2020/12/25 07:24:06;;;;;;;10.98;5.43;;;;;;;1.34;80.89;102966.72;5055777;28;20040;-78
2020/12/25 07:26:33;;;;;;;8.38;5.30;;;;;;;1.34;81.12;102966.72;5055759;28;20036;-78
2020/12/25 07:29:01;;;;;;;9.48;5.05;;;;;;;1.36;80.67;102969.19;5072676;28;20086;-77
2020/12/25 07:31:28;;;;;;;6.07;5.00;;;;;;;1.37;80.58;102960.78;5053345;28;20037;-78
2020/12/25 07:33:55;;;;;;;13.27;4.60;;;;;;;1.36;81.04;102952.81;5052447;28;20083;-78
2020/12/25 07:36:23;;;;;;;12.70;5.95;;;;;;;1.34;81.06;102955.78;5052890;28;20049;-78
2020/12/25 07:39:00;;;;;;;10.40;5.60;;;;;;;1.33;81.52;102948.66;5019276;28;20445;-79
2020/12/25 07:41:27;;;;;;;13.82;4.82;;;;;;;1.34;81.01;102950.34;5053356;28;20045;-78
2020/12/25 07:43:57;;;;;;;8.80;4.65;;;;;;;1.33;81.65;102948.66;5051929;28;20116;-78
2020/12/25 07:46:26;;;;;;;11.45;4.45;;;;;;;1.33;81.23;102948.66;5035386;28;20098;-78
2020/12/25 07:48:57;;;;;;;13.50;5.40;;;;;;;1.33;81.17;102943.19;5053464;28;20037;-78
2020/12/25 07:51:26;;;;;;;16.52;5.63;;;;;;;1.32;81.21;102944.28;5035257;28;20057;-78
2020/12/25 07:54:00;;;;;;;9.38;4.28;;;;;;;1.33;81.45;102936.91;5035441;28;20072;-78
2020/12/25 07:56:34;;;;;;;9.10;4.97;;;;;;;1.32;81.69;102936.09;5052468;28;20110;-78
2020/12/25 07:59:01;;;;;;;15.68;5.93;;;;;;;1.30;81.76;102935.47;5053405;28;20058;-79
2020/12/25 08:01:30;;;;;;;12.55;7.00;;;;;;;1.31;81.42;102928.97;5052317;28;20075;-78
2020/12/25 08:03:57;;;;;;;14.77;7.40;;;;;;;1.31;81.54;102933.56;5052445;28;20064;-78
2020/12/25 08:06:26;;;;;;;12.98;6.00;;;;;;;1.31;81.48;102934.41;5034813;28;20099;-78
2020/12/25 08:09:10;;;;;;;15.80;7.13;;;;;;;1.31;82.00;102939.03;5035053;28;20083;-78
2020/12/25 08:11:39;;;;;;;16.83;7.65;;;;;;;1.31;81.52;102933.56;5018306;28;20139;-79
2020/12/25 08:14:14;;;;;;;19.48;7.50;;;;;;;1.30;81.97;102938.19;5035362;28;20041;-78
2020/12/25 08:16:42;;;;;;;10.70;6.57;;;;;;;1.30;81.93;102932.75;5035192;28;20045;-78
2020/12/25 08:19:10;;;;;;;12.88;6.57;;;;;;;1.30;81.75;102932.75;5035478;28;20048;-79
2020/12/25 08:21:38;;;;;;;14.57;5.65;;;;;;;1.32;81.80;102929.78;5052594;28;20041;-79
2020/12/25 08:24:06;;;;;;;15.15;6.78;;;;;;;1.33;81.92;102924.09;5052932;28;20045;-78
2020/12/25 08:26:38;;;;;;;23.85;8.23;;;;;;;1.35;81.90;102921.16;5006597;28;20045;-77
2020/12/25 08:29:06;;;;;;;11.95;4.95;;;;;;;1.38;82.03;102918.78;5015352;28;20077;-79
2020/12/25 08:31:36;;;;;;;14.82;6.13;;;;;;;1.41;81.90;102918.31;5032791;28;20045;-79
2020/12/25 08:34:04;;;;;;;17.20;5.93;;;;;;;1.43;81.91;102912.66;5032789;28;20048;-78
2020/12/25 08:36:31;;;;;;;8.48;5.15;;;;;;;1.47;82.08;102911.94;5026451;28;20076;-78
2020/12/25 08:39:08;;;;;;;11.48;4.53;;;;;;;1.50;82.02;102916.09;5053981;28;20033;-78
2020/12/25 08:41:34;;;;;;;15.88;4.63;;;;;;;1.52;82.01;102906.63;5053191;28;20095;-78
2020/12/25 08:44:12;;;;;;;15.23;5.18;;;;;;;1.56;82.35;102910.53;5035009;28;20665;-78
2020/12/25 08:46:39;;;;;;;14.65;4.72;;;;;;;1.61;81.88;102913.44;5048423;28;20402;-78
2020/12/25 08:49:05;;;;;;;12.95;6.10;;;;;;;1.62;82.01;102906.88;5049666;28;20044;-78
2020/12/25 08:51:38;;;;;;;8.52;5.45;;;;;;;1.67;81.99;102909.75;5018890;28;20045;-78
2020/12/25 08:54:06;;;;;;;11.48;4.65;;;;;;;1.70;82.25;102901.09;5018840;28;20044;-78
2020/12/25 08:56:35;;;;;;;8.50;5.03;;;;;;;1.72;82.57;102901.69;5035141;28;20103;-78
2020/12/25 08:59:04;;;;;;;7.85;4.40;;;;;;;1.78;82.30;102900.75;5052595;28;20052;-78
2020/12/25 09:01:32;;;;;;;7.82;4.10;;;;;;;1.82;82.27;102899.22;5051667;28;20528;-78
2020/12/25 09:03:59;;;;;;;11.52;4.35;;;;;;;1.88;82.22;102896.63;5034132;28;20441;-78
2020/12/25 09:06:28;;;;;;;17.85;8.13;;;;;;;1.92;82.26;102892.34;5033909;28;20037;-78
2020/12/25 09:08:58;;;;;;;13.70;6.50;;;;;;;1.96;82.26;102890.81;5054359;28;20040;-78
2020/12/25 09:11:25;;;;;;;50.50;22.83;;;;;;;2.00;82.25;102889.25;5038199;28;20045;-79
2020/12/25 09:13:52;;;;;;;32.83;19.98;;;;;;;2.04;82.41;102885.81;5055370;28;20095;-78
2020/12/25 09:16:19;;;;;;;14.68;8.73;;;;;;;2.09;82.17;102901.53;5021933;28;20115;-79
2020/12/25 09:18:45;;;;;;;12.93;6.53;;;;;;;2.11;82.46;102889.28;5050684;28;20033;-79
2020/12/25 09:21:14;;;;;;;11.95;7.25;;;;;;;2.15;82.43;102878.69;5037950;28;20045;-79
2020/12/25 09:23:41;;;;;;;13.35;5.18;;;;;;;2.21;82.07;102885.94;5053734;28;20052;-79
2020/12/25 09:26:10;;;;;;;12.57;4.78;;;;;;;2.23;82.35;102883.81;5052872;28;20116;-78
2020/12/25 09:28:38;;;;;;;14.50;5.60;;;;;;;2.26;81.90;102880.59;5047456;28;20068;-76
2020/12/25 09:31:10;;;;;;;17.85;7.00;;;;;;;2.29;82.36;102878.25;5049817;28;20511;-81
2020/12/25 09:33:36;;;;;;;13.13;5.47;;;;;;;2.32;82.04;102883.22;5032648;28;20437;-78
2020/12/25 09:36:05;;;;;;;12.90;4.78;;;;;;;2.34;82.18;102872.06;5051189;28;20152;-79
2020/12/25 09:38:32;;;;;;;13.98;7.22;;;;;;;2.38;82.35;102882.25;5051708;28;20033;-78
2020/12/25 09:41:02;;;;;;;15.88;6.65;;;;;;;2.40;82.08;102873.84;5034021;28;20025;-80
2020/12/25 09:43:29;;;;;;;14.15;5.80;;;;;;;2.41;81.93;102864.53;5030997;28;21581;-79
2020/12/25 09:45:57;;;;;;;15.15;6.40;;;;;;;2.43;82.09;102870.63;5049136;28;20060;-79
2020/12/25 09:48:25;;;;;;;24.10;7.47;;;;;;;2.46;82.17;102870.97;5052229;28;20098;-79
2020/12/25 09:50:53;;;;;;;18.17;6.57;;;;;;;2.50;81.95;102868.59;5034959;28;20043;-79
2020/12/25 09:53:20;;;;;;;13.20;6.40;;;;;;;2.55;82.16;102873.31;5034961;28;20219;-79
2020/12/25 09:55:50;;;;;;;15.93;6.65;;;;;;;2.56;81.74;102875.00;5053548;28;20424;-80
2020/12/25 09:58:17;;;;;;;13.23;5.03;;;;;;;2.60;81.97;102862.50;5028081;28;20367;-79
2020/12/25 10:00:45;;;;;;;9.65;3.80;;;;;;;2.64;81.94;102874.63;5034777;28;20045;-80
2020/12/25 10:03:11;;;;;;;10.23;3.30;;;;;;;2.66;81.89;102870.59;5051094;28;20156;-80
2020/12/25 10:05:37;;;;;;;8.10;3.83;;;;;;;2.70;82.08;102863.53;5049972;28;20127;-81
2020/12/25 10:08:04;;;;;;;9.15;3.70;;;;;;;2.73;82.02;102863.06;5032531;28;20372;-78
2020/12/25 10:10:32;;;;;;;8.93;3.92;;;;;;;2.76;81.74;102865.31;5052226;28;20033;-78
2020/12/25 10:12:59;;;;;;;8.90;4.22;;;;;;;2.79;81.75;102867.59;5034728;28;20041;-79
2020/12/25 10:15:25;;;;;;;12.00;7.75;;;;;;;2.83;81.70;102874.22;5052288;28;20041;-79
2020/12/25 10:17:52;;;;;;;11.02;4.65;;;;;;;2.89;81.44;102865.06;5052206;28;20538;-79
2020/12/25 10:20:18;;;;;;;6.75;4.20;;;;;;;2.94;81.55;102867.88;5050271;28;20525;-78
2020/12/25 10:22:45;;;;;;;17.80;9.15;;;;;;;3.00;81.74;102864.19;5052330;28;20053;-78
2020/12/25 10:25:11;;;;;;;9.02;5.57;;;;;;;3.10;81.45;102862.75;5033064;28;20450;-78
2020/12/25 10:27:41;;;;;;;15.77;6.65;;;;;;;3.16;81.45;102859.00;5051533;28;20053;-78
2020/12/25 10:30:08;;;;;;;14.82;6.78;;;;;;;3.21;81.28;102865.41;5051527;28;20051;-76
2020/12/25 10:32:37;;;;;;;7.82;5.65;;;;;;;3.26;81.35;102867.41;5033862;28;20056;-78
2020/12/25 10:35:04;;;;;;;8.80;4.38;;;;;;;3.31;81.20;102871.06;5051551;28;20615;-78
2020/12/25 10:37:30;;;;;;;11.60;5.38;;;;;;;3.39;81.03;102858.94;5056251;28;20040;-78
2020/12/25 10:39:57;;;;;;;14.45;5.93;;;;;;;3.46;81.30;102860.44;5056281;28;20033;-78
2020/12/25 10:42:24;;;;;;;11.23;5.60;;;;;;;3.52;81.20;102867.63;5018314;28;20045;-78
2020/12/25 10:44:50;;;;;;;8.13;4.15;;;;;;;3.58;81.10;102874.03;5033121;28;20781;-78
2020/12/25 10:47:17;;;;;;;9.77;4.13;;;;;;;3.62;80.95;102877.97;5051362;28;20099;-77
2020/12/25 10:49:43;;;;;;;13.20;7.43;;;;;;;3.61;80.49;102866.16;5052224;28;20071;-78
2020/12/25 10:52:09;;;;;;;10.20;7.22;;;;;;;3.63;80.29;102863.16;5051139;28;20093;-77
2020/12/25 10:54:36;;;;;;;8.52;4.65;;;;;;;3.64;79.94;102867.59;5033149;28;20044;-77
2020/12/25 10:57:03;;;;;;;7.60;3.78;;;;;;;3.66;80.16;102862.69;5033140;28;20485;-78
2020/12/25 10:59:29;;;;;;;6.82;3.05;;;;;;;3.68;80.23;102857.78;5052421;28;20049;-78
2020/12/25 11:01:55;;;;;;;6.47;2.53;;;;;;;3.70;79.91;102858.38;5051010;28;20457;-78
2020/12/25 11:04:22;;;;;;;5.65;2.55;;;;;;;3.72;80.16;102860.88;5050354;28;20060;-79
2020/12/25 11:06:48;;;;;;;7.93;3.17;;;;;;;3.69;79.49;102862.19;5052106;28;20465;-78
2020/12/25 11:09:15;;;;;;;6.82;2.35;;;;;;;3.68;79.58;102860.50;5051705;28;20120;-78
2020/12/25 11:11:43;;;;;;;6.85;3.65;;;;;;;3.69;79.82;102865.75;5047398;28;20041;-79
2020/12/25 11:14:10;;;;;;;3.50;2.63;;;;;;;3.72;79.77;102867.19;5052041;28;20064;-78
2020/12/25 11:16:37;;;;;;;11.35;3.30;;;;;;;3.76;79.48;102865.59;5052231;28;20040;-78
2020/12/25 11:19:07;;;;;;;8.13;3.90;;;;;;;3.82;79.42;102856.38;5050725;28;20123;-77
2020/12/25 11:21:34;;;;;;;6.97;4.00;;;;;;;3.88;79.58;102852.66;5051647;28;20114;-78
2020/12/25 11:24:02;;;;;;;9.48;4.53;;;;;;;3.93;79.31;102860.97;5049742;28;20040;-78
2020/12/25 11:26:34;;;;;;;6.90;4.90;;;;;;;3.96;79.50;102856.88;5048349;28;20477;-78
2020/12/25 11:29:04;;;;;;;7.65;4.75;;;;;;;3.97;79.52;102847.59;5051747;28;20512;-77
2020/12/25 11:31:36;;;;;;;;;;;;;;;4.01;78.80;102855.06;5051213;28;20363;-78
2020/12/25 11:34:02;;;;;;;9.05;4.13;;;;;;;4.06;79.14;102852.41;5032736;28;20278;-78